TN28 weather

Anderson-Tully County Heliport
Memphis, Tennessee, United States

Public forecast

Using degrees Fahrenheit for public forecast. Weather courtesy of forecast.io.

METAR (pilot weather report)

Closest report is Memphis International Airport, 8.7 nm (16.0 km) SSE. Retrieved 2019/06/16 14:54 UTC (1 hour ago):

KMEM 161454Z 21008KT 10SM SCT023 SCT038 OVC120 27/23 A2995 RMK AO2 SLP136 T02720233 58005 $

TAF (pilot weather forecast)

Closest forecast is Memphis International Airport, 8.7 nm (16.0 km) SSE. Retrieved 2019/06/16 12:22 UTC (4 hours ago):

TAF KMEM 161120Z 1612/1718 21010KT P6SM BKN250 FM161700 21013G19KT P6SM VCTS BKN035CB OVC150 FM170200 19005KT P6SM VCSH BKN050 OVC250 FM171400 18007KT P6SM OVC100